createdAt,value
2019-06-10T00:02:22.480Z,8.00
2019-06-10T00:04:50.811Z,8.03
2019-06-10T00:07:18.413Z,9.17
2019-06-10T00:09:45.872Z,7.67
2019-06-10T00:12:13.596Z,6.90
2019-06-10T00:14:41.885Z,7.67
2019-06-10T00:17:11.050Z,7.60
2019-06-10T00:19:40.746Z,6.70
2019-06-10T00:22:08.530Z,10.30
2019-06-10T00:24:37.464Z,7.10
2019-06-10T00:27:05.909Z,7.17
2019-06-10T00:29:34.251Z,6.50
2019-06-10T00:32:04.705Z,6.70
2019-06-10T00:34:31.633Z,6.43
2019-06-10T00:37:02.644Z,9.60
2019-06-10T00:39:31.276Z,8.40
2019-06-10T00:42:02.466Z,7.67
2019-06-10T00:44:28.167Z,6.20
2019-06-10T00:46:55.681Z,7.50
2019-06-10T00:49:23.096Z,7.20
2019-06-10T00:51:51.122Z,9.40
2019-06-10T00:54:18.744Z,12.67
2019-06-10T00:56:46.116Z,12.13
2019-06-10T00:59:15.358Z,10.80
2019-06-10T01:01:42.862Z,11.87
2019-06-10T01:04:14.422Z,10.87
2019-06-10T01:06:42.144Z,11.37
2019-06-10T01:09:11.397Z,11.83
2019-06-10T01:11:38.309Z,12.00
2019-06-10T01:14:05.768Z,11.70
2019-06-10T01:16:33.155Z,12.10
2019-06-10T01:19:01.460Z,11.97
2019-06-10T01:21:31.156Z,13.37
2019-06-10T01:23:58.441Z,13.83
2019-06-10T01:26:25.804Z,13.37
2019-06-10T01:28:53.226Z,13.07
2019-06-10T01:31:24.100Z,12.33
2019-06-10T01:33:51.310Z,13.53
2019-06-10T01:36:21.096Z,11.33
2019-06-10T01:38:50.940Z,11.57
2019-06-10T01:41:17.763Z,11.43
2019-06-10T01:43:45.262Z,12.33
2019-06-10T01:46:14.441Z,13.63
2019-06-10T01:48:47.816Z,12.17
2019-06-10T01:51:17.520Z,12.47
2019-06-10T01:53:45.534Z,12.60
2019-06-10T01:56:15.455Z,12.57
2019-06-10T01:58:42.284Z,13.73
2019-06-10T02:01:18.687Z,12.40
2019-06-10T02:03:46.274Z,13.67
2019-06-10T02:06:17.708Z,15.97
2019-06-10T02:08:43.006Z,16.57
2019-06-10T02:11:14.033Z,17.03
2019-06-10T02:13:40.954Z,14.87
2019-06-10T02:16:10.346Z,16.47
2019-06-10T02:18:37.844Z,16.17
2019-06-10T02:21:05.289Z,17.83
2019-06-10T02:23:32.700Z,19.50
2019-06-10T02:26:01.455Z,16.37
2019-06-10T02:28:31.673Z,19.00
2019-06-10T02:31:02.571Z,20.77
2019-06-10T02:33:34.808Z,17.60
2019-06-10T02:35:57.946Z,20.57
2019-06-10T02:38:33.653Z,17.63
2019-06-10T02:40:54.816Z,17.13
2019-06-10T02:43:32.117Z,22.00
2019-06-10T02:45:53.718Z,16.73
2019-06-10T02:48:24.367Z,17.33
2019-06-10T02:51:08.414Z,20.27
2019-06-10T02:53:37.357Z,16.50
2019-06-10T02:56:06.738Z,16.60
2019-06-10T02:58:38.759Z,15.63
2019-06-10T03:01:04.674Z,13.93
2019-06-10T03:03:42.371Z,13.10
2019-06-10T03:06:07.129Z,15.27
2019-06-10T03:08:35.943Z,14.23
2019-06-10T03:11:03.808Z,14.27
2019-06-10T03:13:30.165Z,13.87
2019-06-10T03:16:35.149Z,17.73
2019-06-10T03:19:03.038Z,17.20
2019-06-10T03:21:32.297Z,15.97
2019-06-10T03:23:59.812Z,19.13
2019-06-10T03:26:27.675Z,15.90
2019-06-10T03:28:55.176Z,17.30
2019-06-10T03:31:31.007Z,16.60
2019-06-10T03:33:54.464Z,14.10
2019-06-10T03:36:23.085Z,15.23
2019-06-10T03:38:53.536Z,17.47
2019-06-10T03:41:22.884Z,12.40
2019-06-10T03:43:49.771Z,13.60
2019-06-10T03:46:17.309Z,13.30
2019-06-10T03:48:44.802Z,14.53
2019-06-10T03:51:12.756Z,13.77
2019-06-10T03:53:42.596Z,14.83
2019-06-10T03:56:12.580Z,14.17
2019-06-10T03:58:39.384Z,14.80
2019-06-10T04:01:06.810Z,13.23
2019-06-10T04:03:34.212Z,14.23
2019-06-10T04:06:02.379Z,12.83
2019-06-10T04:08:32.594Z,13.77
2019-06-10T04:10:59.586Z,13.90
2019-06-10T04:13:28.387Z,16.50
2019-06-10T04:15:57.481Z,16.80
2019-06-10T04:18:26.581Z,14.40
2019-06-10T04:20:54.306Z,14.73
2019-06-10T04:23:23.977Z,12.73
2019-06-10T04:25:52.680Z,20.20
2019-06-10T04:28:20.251Z,14.03
2019-06-10T04:30:47.625Z,16.50
2019-06-10T04:33:15.050Z,15.73
2019-06-10T04:35:42.856Z,15.33
2019-06-10T04:38:10.332Z,16.23
2019-06-10T04:40:38.004Z,15.80
2019-06-10T04:43:05.445Z,13.50
2019-06-10T04:45:32.806Z,13.03
2019-06-10T04:48:00.288Z,12.10
2019-06-10T04:50:39.122Z,12.93
2019-06-10T04:52:57.095Z,14.17
2019-06-10T04:55:26.167Z,14.47
2019-06-10T04:57:53.898Z,17.80
2019-06-10T05:00:24.115Z,17.27
2019-06-10T05:02:52.202Z,15.20
2019-06-10T05:05:23.615Z,16.83
2019-06-10T05:07:49.225Z,15.93
2019-06-10T05:10:16.912Z,15.80
2019-06-10T05:12:44.370Z,15.10
2019-06-10T05:15:12.555Z,15.83
2019-06-10T05:17:40.197Z,20.43
2019-06-10T05:20:09.594Z,13.37
2019-06-10T05:22:37.128Z,14.43
2019-06-10T05:25:04.810Z,14.70
2019-06-10T05:27:33.069Z,17.57
2019-06-10T05:30:02.361Z,11.80
2019-06-10T05:32:31.145Z,8.80
2019-06-10T05:34:59.302Z,6.47
2019-06-10T05:37:28.195Z,8.10
2019-06-10T05:39:56.117Z,5.43
2019-06-10T05:42:26.059Z,5.73
2019-06-10T05:44:53.119Z,5.00
2019-06-10T05:47:23.360Z,4.63
2019-06-10T05:49:49.968Z,6.60
2019-06-10T05:52:17.346Z,7.07
2019-06-10T05:54:44.776Z,3.80
2019-06-10T05:57:12.240Z,4.53
2019-06-10T05:59:39.737Z,3.67
2019-06-10T06:02:07.699Z,5.20
2019-06-10T06:04:36.052Z,6.33
2019-06-10T06:07:03.852Z,6.33
2019-06-10T06:09:33.602Z,5.40
2019-06-10T06:12:02.480Z,4.47
2019-06-10T06:14:31.627Z,4.87
2019-06-10T06:17:02.073Z,4.07
2019-06-10T06:19:30.187Z,5.60
2019-06-10T06:21:58.203Z,4.23
2019-06-10T06:24:25.658Z,5.40
2019-06-10T06:26:53.467Z,4.43
2019-06-10T06:29:22.224Z,3.30
2019-06-10T06:31:52.095Z,3.67
2019-06-10T06:34:19.279Z,5.60
2019-06-10T06:36:46.747Z,7.73
2019-06-10T06:39:14.170Z,4.63
2019-06-10T06:41:42.727Z,2.80
2019-06-10T06:44:12.996Z,3.10
2019-06-10T06:46:42.672Z,4.10
2019-06-10T06:49:09.556Z,2.72
2019-06-10T06:51:49.525Z,3.13
2019-06-10T06:54:06.391Z,3.47
2019-06-10T06:56:36.137Z,3.27
2019-06-10T06:59:03.342Z,3.80
2019-06-10T07:01:34.615Z,4.20
2019-06-10T07:04:02.439Z,6.67
2019-06-10T07:06:32.481Z,4.50
2019-06-10T07:09:07.760Z,5.73
2019-06-10T07:11:35.646Z,5.87
2019-06-10T07:14:03.978Z,6.33
2019-06-10T07:16:34.063Z,4.10
2019-06-10T07:19:02.621Z,4.43
2019-06-10T07:21:30.231Z,4.03
2019-06-10T07:23:57.617Z,3.47
2019-06-10T07:26:25.074Z,3.73
2019-06-10T07:28:53.784Z,3.60
2019-06-10T07:31:27.491Z,4.33
2019-06-10T07:33:52.644Z,3.20
2019-06-10T07:36:20.129Z,6.97
2019-06-10T07:38:49.178Z,7.43
2019-06-10T07:41:17.017Z,5.87
2019-06-10T07:43:49.478Z,3.30
2019-06-10T07:46:13.899Z,5.67
2019-06-10T07:48:46.227Z,4.10
2019-06-10T07:51:12.904Z,6.33
2019-06-10T07:53:42.304Z,4.90
2019-06-10T07:56:09.318Z,5.20
2019-06-10T07:58:37.233Z,3.13
2019-06-10T08:01:06.022Z,3.93
2019-06-10T08:03:35.266Z,4.30
2019-06-10T08:06:03.473Z,4.60
2019-06-10T08:08:32.838Z,4.23
2019-06-10T08:11:03.087Z,3.20
2019-06-10T08:13:32.089Z,5.57
2019-06-10T08:15:59.227Z,3.20
2019-06-10T08:18:26.745Z,4.77
2019-06-10T08:20:54.152Z,3.60
2019-06-10T08:23:23.699Z,4.30
2019-06-10T08:25:56.663Z,3.23
2019-06-10T08:28:22.983Z,4.93
2019-06-10T08:30:49.731Z,6.27
2019-06-10T08:33:17.103Z,7.10
2019-06-10T08:35:55.778Z,5.60
2019-06-10T08:38:14.110Z,3.73
2019-06-10T08:40:45.001Z,7.00
2019-06-10T08:43:13.166Z,9.47
2019-06-10T08:45:43.334Z,8.43
2019-06-10T08:48:09.855Z,3.53
2019-06-10T08:50:37.700Z,3.57
2019-06-10T08:53:13.509Z,6.93
2019-06-10T08:55:34.797Z,6.73
2019-06-10T08:58:03.006Z,5.20
2019-06-10T09:00:33.185Z,6.63
2019-06-10T09:03:03.819Z,6.87
2019-06-10T09:05:32.283Z,5.50
2019-06-10T09:07:59.582Z,4.40
2019-06-10T09:10:27.022Z,9.97
2019-06-10T09:12:54.829Z,6.67
2019-06-10T09:15:23.643Z,7.67
2019-06-10T09:17:55.242Z,5.87
2019-06-10T09:20:23.064Z,4.97
2019-06-10T09:23:13.951Z,6.83
2019-06-10T09:25:22.463Z,3.70
2019-06-10T09:27:51.936Z,4.10
2019-06-10T09:30:19.348Z,4.60
2019-06-10T09:32:51.182Z,5.93
2019-06-10T09:35:16.537Z,5.70
2019-06-10T09:37:48.366Z,4.00
2019-06-10T09:40:14.604Z,4.93
2019-06-10T09:42:46.280Z,7.80
2019-06-10T09:45:13.657Z,5.07
2019-06-10T09:47:45.593Z,6.63
2019-06-10T09:50:12.299Z,3.40
2019-06-10T09:52:41.555Z,5.00
2019-06-10T09:55:12.861Z,5.57
2019-06-10T09:57:43.356Z,4.87
2019-06-10T10:00:12.569Z,8.80
2019-06-10T10:02:44.903Z,7.80
2019-06-10T10:05:10.259Z,7.03
2019-06-10T10:07:38.621Z,8.93
2019-06-10T10:10:07.316Z,9.93
2019-06-10T10:12:34.875Z,9.60
2019-06-10T10:15:22.113Z,10.80
2019-06-10T10:17:33.381Z,8.37
2019-06-10T10:20:03.198Z,6.93
2019-06-10T10:22:30.505Z,10.37
2019-06-10T10:24:57.978Z,9.87
2019-06-10T10:27:25.397Z,7.93
2019-06-10T10:29:57.030Z,8.87
2019-06-10T10:32:23.234Z,6.77
2019-06-10T10:34:52.477Z,5.83
2019-06-10T10:37:22.945Z,6.27
2019-06-10T10:39:53.789Z,8.37
2019-06-10T10:42:19.606Z,10.50
2019-06-10T10:44:50.004Z,7.40
2019-06-10T10:47:16.508Z,6.83
2019-06-10T10:49:45.001Z,6.57
2019-06-10T10:52:12.965Z,10.87
2019-06-10T10:54:44.386Z,11.13
2019-06-10T10:57:10.043Z,7.20
2019-06-10T10:59:37.490Z,7.40
2019-06-10T11:02:04.990Z,8.17
2019-06-10T11:04:33.052Z,4.63
2019-06-10T11:07:01.246Z,7.03
2019-06-10T11:09:29.765Z,7.27
2019-06-10T11:11:59.676Z,7.73
2019-06-10T11:14:28.280Z,4.87
2019-06-10T11:16:57.461Z,4.30
2019-06-10T11:19:25.271Z,5.07
2019-06-10T11:21:53.670Z,6.37
2019-06-10T11:24:35.519Z,5.43
2019-06-10T11:26:54.498Z,4.33
2019-06-10T11:29:20.338Z,4.83
2019-06-10T11:31:48.486Z,7.07
2019-06-10T11:34:19.040Z,4.63
2019-06-10T11:36:46.140Z,9.70
2019-06-10T11:39:13.824Z,6.37
2019-06-10T11:41:43.623Z,4.13
2019-06-10T11:44:10.780Z,5.20
2019-06-10T11:46:38.193Z,7.60
2019-06-10T11:49:05.818Z,4.60
2019-06-10T11:51:33.305Z,7.17
2019-06-10T11:54:03.237Z,7.30
2019-06-10T11:56:33.454Z,9.87
2019-06-10T11:59:03.134Z,12.00
2019-06-10T12:01:28.875Z,8.73
2019-06-10T12:03:58.832Z,7.17
2019-06-10T12:06:25.605Z,8.27
2019-06-10T12:08:57.324Z,7.47
2019-06-10T12:11:23.136Z,5.73
2019-06-10T12:13:53.743Z,7.93
2019-06-10T12:17:14.779Z,5.43
2019-06-10T12:18:49.359Z,5.17
2019-06-10T12:21:16.733Z,6.43
2019-06-10T12:23:44.165Z,7.90
2019-06-10T12:26:11.596Z,9.93
2019-06-10T12:28:38.982Z,7.57
2019-06-10T12:31:07.449Z,6.90
2019-06-10T12:33:35.132Z,5.33
2019-06-10T12:36:06.715Z,5.10
2019-06-10T12:38:33.419Z,3.77
2019-06-10T12:41:07.452Z,4.17
2019-06-10T12:43:32.568Z,4.70
2019-06-10T12:46:00.928Z,3.87
2019-06-10T12:48:29.110Z,5.57
2019-06-10T12:50:58.894Z,4.63
2019-06-10T12:53:26.034Z,5.27
2019-06-10T12:55:55.484Z,5.03
2019-06-10T12:58:22.929Z,6.77
2019-06-10T13:00:53.036Z,6.20
2019-06-10T13:03:19.995Z,6.00
2019-06-10T13:05:47.412Z,4.27
2019-06-10T13:08:15.790Z,3.37
2019-06-10T13:10:44.072Z,5.37
2019-06-10T13:13:11.623Z,4.33
2019-06-10T13:15:43.135Z,4.93
2019-06-10T13:18:17.363Z,4.70
2019-06-10T13:20:39.288Z,4.00
2019-06-10T13:23:17.229Z,6.23
2019-06-10T13:25:50.331Z,7.43
2019-06-10T13:28:06.778Z,4.83
2019-06-10T13:30:34.808Z,4.43
2019-06-10T13:33:06.371Z,4.57
2019-06-10T13:35:32.199Z,4.33
2019-06-10T13:38:00.971Z,6.97
2019-06-10T13:40:29.239Z,5.90
2019-06-10T13:42:57.668Z,6.23
2019-06-10T13:45:25.746Z,4.53
2019-06-10T13:47:53.222Z,6.50
2019-06-10T13:50:22.125Z,5.27
2019-06-10T13:52:52.162Z,5.37
2019-06-10T13:55:22.220Z,5.57
2019-06-10T13:57:49.172Z,4.07
2019-06-10T14:00:17.178Z,5.90
2019-06-10T14:02:44.549Z,3.00
2019-06-10T14:05:18.049Z,5.43
2019-06-10T14:07:43.457Z,2.80
2019-06-10T14:10:17.766Z,4.30
2019-06-10T14:12:43.149Z,5.23
2019-06-10T14:15:12.196Z,2.77
2019-06-10T14:17:41.914Z,5.27
2019-06-10T14:20:10.862Z,5.67
2019-06-10T14:22:39.343Z,6.93
2019-06-10T14:25:09.764Z,4.57
2019-06-10T14:27:36.881Z,3.33
2019-06-10T14:30:06.250Z,5.20
2019-06-10T14:32:34.085Z,4.40
2019-06-10T14:35:01.547Z,2.87
2019-06-10T14:37:35.738Z,3.50
2019-06-10T14:39:58.609Z,4.33
2019-06-10T14:42:25.992Z,3.37
2019-06-10T14:44:53.621Z,6.33
2019-06-10T14:47:22.979Z,4.10
2019-06-10T14:49:52.886Z,3.50
2019-06-10T14:52:19.899Z,3.77
2019-06-10T14:54:47.274Z,4.40
2019-06-10T14:57:15.459Z,3.70
2019-06-10T14:59:44.123Z,6.13
2019-06-10T15:02:12.872Z,7.43
2019-06-10T15:04:42.545Z,5.50
2019-06-10T15:07:11.447Z,5.50
2019-06-10T15:09:39.001Z,9.07
2019-06-10T15:12:07.566Z,6.37
2019-06-10T15:14:35.146Z,6.60
2019-06-10T15:17:08.479Z,8.73
2019-06-10T15:19:36.157Z,4.47
2019-06-10T15:22:03.709Z,6.37
2019-06-10T15:24:33.418Z,4.33
2019-06-10T15:27:10.269Z,6.57
2019-06-10T15:29:32.659Z,7.47
2019-06-10T15:32:10.489Z,6.87
2019-06-10T15:34:28.690Z,6.17
2019-06-10T15:36:56.234Z,4.60
2019-06-10T15:39:24.230Z,6.00
2019-06-10T15:41:52.330Z,4.30
2019-06-10T15:44:41.433Z,4.77
2019-06-10T15:46:49.329Z,3.90
2019-06-10T15:49:19.384Z,4.33
2019-06-10T15:51:46.062Z,5.20
2019-06-10T15:54:15.941Z,4.30
2019-06-10T15:56:51.899Z,6.23
2019-06-10T15:59:13.845Z,4.30
2019-06-10T16:01:41.657Z,5.03
2019-06-10T16:04:09.102Z,7.33
2019-06-10T16:06:36.612Z,6.67
2019-06-10T16:09:06.236Z,5.47
2019-06-10T16:11:33.699Z,8.70
2019-06-10T16:14:02.932Z,5.50
2019-06-10T16:16:32.463Z,4.67
2019-06-10T16:19:02.142Z,7.33
2019-06-10T16:21:29.268Z,5.60
2019-06-10T16:23:56.726Z,6.83
2019-06-10T16:26:26.767Z,5.70
2019-06-10T16:28:53.483Z,6.50
2019-06-10T16:31:24.801Z,8.47
2019-06-10T16:33:52.567Z,7.57
2019-06-10T16:36:21.116Z,4.70
2019-06-10T16:38:49.321Z,5.80
2019-06-10T16:41:17.529Z,6.00
2019-06-10T16:43:45.122Z,5.50
2019-06-10T16:46:12.543Z,5.03
2019-06-10T16:48:39.990Z,5.40
2019-06-10T16:51:07.459Z,6.90
2019-06-10T16:53:35.796Z,6.10
2019-06-10T16:56:03.574Z,6.50
2019-06-10T16:58:33.200Z,5.20
2019-06-10T17:01:03.538Z,6.43
2019-06-10T17:03:33.287Z,6.00
2019-06-10T17:06:02.401Z,5.63
2019-06-10T17:08:30.295Z,7.00
2019-06-10T17:10:57.891Z,6.50
2019-06-10T17:13:28.916Z,8.17
2019-06-10T17:15:56.785Z,6.17
2019-06-10T17:18:26.259Z,7.57
2019-06-10T17:20:53.787Z,7.37
2019-06-10T17:23:26.409Z,8.97
2019-06-10T17:25:53.604Z,6.93
2019-06-10T17:28:25.605Z,9.47
2019-06-10T17:30:53.010Z,7.90
2019-06-10T17:33:22.436Z,6.80
2019-06-10T17:35:49.676Z,8.33
2019-06-10T17:38:17.145Z,16.93
2019-06-10T17:40:45.442Z,18.30
2019-06-10T17:43:12.981Z,10.73
2019-06-10T17:45:42.167Z,7.33
2019-06-10T17:48:09.832Z,7.43
2019-06-10T17:50:37.208Z,18.17
2019-06-10T17:53:04.769Z,9.17
2019-06-10T17:55:34.074Z,8.57
2019-06-10T17:58:02.941Z,10.70
2019-06-10T18:00:33.597Z,9.63
2019-06-10T18:03:03.508Z,7.50
2019-06-10T18:05:29.638Z,6.60
2019-06-10T18:07:57.118Z,12.00
2019-06-10T18:10:25.587Z,11.77
2019-06-10T18:12:53.198Z,9.63
2019-06-10T18:15:22.243Z,10.23
2019-06-10T18:17:52.117Z,9.73
2019-06-10T18:20:19.658Z,16.40
2019-06-10T18:22:47.118Z,13.50
2019-06-10T18:25:16.443Z,9.47
2019-06-10T18:27:43.825Z,13.70
2019-06-10T18:30:14.347Z,17.83
2019-06-10T18:32:42.976Z,11.83
2019-06-10T18:35:10.996Z,17.17
2019-06-10T18:37:39.146Z,20.47
2019-06-10T18:40:08.555Z,11.20
2019-06-10T18:42:37.555Z,19.13
2019-06-10T18:45:09.262Z,9.73
2019-06-10T18:47:37.262Z,9.53
2019-06-10T18:50:07.726Z,10.90
2019-06-10T18:52:35.163Z,12.30
2019-06-10T18:55:03.376Z,12.10
2019-06-10T18:57:33.166Z,10.17
2019-06-10T19:00:02.907Z,9.63
2019-06-10T19:02:30.344Z,13.67
2019-06-10T19:04:57.848Z,10.83
2019-06-10T19:07:25.269Z,10.60
2019-06-10T19:09:52.996Z,8.27
2019-06-10T19:12:22.430Z,11.80
2019-06-10T19:14:52.154Z,10.67
2019-06-10T19:17:19.284Z,13.10
2019-06-10T19:19:46.743Z,11.90
2019-06-10T19:22:14.321Z,9.47
2019-06-10T19:24:44.634Z,8.80
2019-06-10T19:27:11.102Z,8.33
2019-06-10T19:29:45.893Z,9.90
2019-06-10T19:32:08.033Z,10.87
2019-06-10T19:34:35.429Z,10.93
2019-06-10T19:37:03.130Z,10.07
2019-06-10T19:39:35.596Z,9.53
2019-06-10T19:42:02.619Z,11.20
2019-06-10T19:44:29.449Z,9.30
2019-06-10T19:46:56.998Z,16.30
2019-06-10T19:49:24.399Z,7.30
2019-06-10T19:51:52.715Z,12.10
2019-06-10T19:54:20.182Z,10.60
2019-06-10T19:56:47.682Z,8.70
2019-06-10T19:59:15.140Z,8.90
2019-06-10T20:01:46.651Z,8.93
2019-06-10T20:04:15.606Z,8.27
2019-06-10T20:06:45.201Z,8.57
2019-06-10T20:09:13.075Z,10.53
2019-06-10T20:11:41.034Z,9.60
2019-06-10T20:14:09.238Z,8.17
2019-06-10T20:16:37.853Z,10.33
2019-06-10T20:19:05.567Z,12.37
2019-06-10T20:21:33.048Z,9.63
2019-06-10T20:24:02.717Z,9.53
2019-06-10T20:26:29.927Z,7.50
2019-06-10T20:28:57.324Z,9.10
2019-06-10T20:31:24.743Z,5.03
2019-06-10T20:33:52.407Z,4.30
2019-06-10T20:36:25.626Z,3.27
2019-06-10T20:38:51.341Z,7.70
2019-06-10T20:41:18.799Z,9.20
2019-06-10T20:43:47.313Z,7.73
2019-06-10T20:46:15.012Z,12.23
2019-06-10T20:48:45.196Z,11.80
2019-06-10T20:51:13.249Z,11.73
2019-06-10T20:53:43.187Z,7.60
2019-06-10T20:56:12.448Z,7.33
2019-06-10T20:58:40.754Z,8.40
2019-06-10T21:01:08.895Z,6.87
2019-06-10T21:03:36.322Z,8.83
2019-06-10T21:06:04.182Z,6.13
2019-06-10T21:08:33.166Z,6.27
2019-06-10T21:11:02.978Z,6.07
2019-06-10T21:13:32.763Z,7.83
2019-06-10T21:15:59.664Z,5.50
2019-06-10T21:18:27.147Z,7.27
2019-06-10T21:20:56.211Z,8.50
2019-06-10T21:23:23.901Z,8.00
2019-06-10T21:25:52.495Z,5.83
2019-06-10T21:28:20.037Z,5.20
2019-06-10T21:30:53.010Z,5.97
2019-06-10T21:33:16.811Z,6.47
2019-06-10T21:35:46.867Z,5.33
2019-06-10T21:38:13.650Z,5.93
2019-06-10T21:40:42.484Z,6.60
2019-06-10T21:43:12.864Z,6.50
2019-06-10T21:45:42.467Z,6.30
2019-06-10T21:48:09.191Z,6.90
2019-06-10T21:50:36.670Z,7.60
2019-06-10T21:53:04.171Z,7.37
2019-06-10T21:55:33.131Z,6.97
2019-06-10T21:58:03.411Z,7.97
2019-06-10T22:00:52.863Z,7.87
2019-06-10T22:03:08.565Z,7.53
2019-06-10T22:05:35.959Z,10.50
2019-06-10T22:08:03.510Z,7.73
2019-06-10T22:10:33.406Z,7.17
2019-06-10T22:13:02.990Z,6.27
2019-06-10T22:15:29.741Z,8.20
2019-06-10T22:17:57.177Z,6.73
2019-06-10T22:20:24.825Z,5.60
2019-06-10T22:22:53.670Z,5.53
2019-06-10T22:25:22.401Z,5.43
2019-06-10T22:27:50.087Z,5.80
2019-06-10T22:30:17.579Z,5.00
2019-06-10T22:32:45.237Z,5.57
2019-06-10T22:35:12.881Z,4.10
2019-06-10T22:37:40.367Z,4.70
2019-06-10T22:40:07.788Z,6.17
2019-06-10T22:42:35.164Z,7.07
2019-06-10T22:45:03.827Z,5.83
2019-06-10T22:47:32.405Z,4.90
2019-06-10T22:50:04.836Z,4.77
2019-06-10T22:52:29.372Z,4.57
2019-06-10T22:54:58.515Z,4.23
2019-06-10T22:57:26.263Z,4.03
2019-06-10T22:59:56.264Z,3.73
2019-06-10T23:02:22.996Z,5.83
2019-06-10T23:04:51.919Z,6.47
2019-06-10T23:07:19.737Z,5.87
2019-06-10T23:09:48.595Z,4.83
2019-06-10T23:12:16.437Z,5.73
2019-06-10T23:14:43.864Z,5.97
2019-06-10T23:17:14.030Z,5.53
2019-06-10T23:19:42.766Z,7.87
2019-06-10T23:22:09.914Z,5.70
2019-06-10T23:24:37.274Z,4.63
2019-06-10T23:27:04.697Z,4.53
2019-06-10T23:29:32.359Z,4.57
2019-06-10T23:32:05.868Z,4.63
2019-06-10T23:34:29.188Z,5.47
2019-06-10T23:36:58.325Z,8.17
2019-06-10T23:39:26.097Z,7.07
2019-06-10T23:41:55.135Z,6.30
2019-06-10T23:44:23.040Z,5.40
2019-06-10T23:46:51.113Z,5.30
2019-06-10T23:49:18.595Z,5.83
2019-06-10T23:51:46.112Z,4.50
2019-06-10T23:54:13.515Z,4.87
2019-06-10T23:56:42.838Z,5.17
2019-06-10T23:59:12.056Z,4.70
